Ellensburg, Washington
Current Conditions -  °F | °C
As of 12:53 AM on Wednesday 22 Oct 2014 (Local Time) from KELN Reporting Station
Broken Clouds Broken Clouds  
Wind Chill: 44°   Ceiling: 11000
Heat Index: 48°   Visibility: 10mi
Dew Point: 41°   Wind: 9mph
Humidity: 77%   Direction: 70°ENE
Pressure: 29.88"   Gusts: NA
Location:  47°N, 120.54°W
Report Text: KELN 220753Z AUTO 07008KT 10SM BKN110 09/05 A2988 RMK AO2 SLP116 T00890050 401830044
Loading
Personal Weather Stations






























Interactive Weather Map
Tropical Storm Tracking
New forecast layout! Learn more

10-Day Weather Forecast

Advertisements
Track Severe Weather on mobile